Time;durP1;ratioP1;P1;durP2;ratioP2;P2;SDS_P1;SDS_P2;PMS_P1;PMS_P2;Temp;Humidity;BMP_temperature;BMP_pressure;BME280_temperature;BME280_humidity;BME280_pressure;Samples;Min_cycle;Max_cycle;Signal;HPM_P1;HPM_P2
2022/07/17 00:00:42;;;;;;;8.60;5.53;;;;;;;;;;5009352;28;20482;-41
2022/07/17 00:03:17;;;;;;;6.88;5.00;;;;;;;;;;5006088;28;20029;-43
2022/07/17 00:05:43;;;;;;;7.45;5.10;;;;;;;;;;5005663;28;20026;-43
2022/07/17 00:08:10;;;;;;;8.32;5.45;;;;;;;;;;5008684;28;20834;-44
2022/07/17 00:10:38;;;;;;;12.75;6.07;;;;;;;;;;5006316;28;20041;-41
2022/07/17 00:13:04;;;;;;;8.43;5.95;;;;;;;;;;5007247;28;20030;-42
2022/07/17 00:15:29;;;;;;;8.45;5.40;;;;;;;;;;5009512;28;20040;-44
2022/07/17 00:17:56;;;;;;;7.18;6.00;;;;;;;;;;5009566;28;20375;-44
2022/07/17 00:20:24;;;;;;;10.27;5.72;;;;;;;;;;5006130;28;20145;-42
2022/07/17 00:22:57;;;;;;;9.93;5.30;;;;;;;;;;5010637;28;20038;-44
2022/07/17 00:25:24;;;;;;;6.47;5.32;;;;;;;;;;5005777;28;20442;-43
2022/07/17 00:27:50;;;;;;;10.82;5.55;;;;;;;;;;5008889;28;20021;-44
2022/07/17 00:30:16;;;;;;;9.00;5.40;;;;;;;;;;5004889;28;20026;-42
2022/07/17 00:32:42;;;;;;;9.10;5.90;;;;;;;;;;5012900;28;20505;-41
2022/07/17 00:35:08;;;;;;;6.93;5.80;;;;;;;;;;5004511;28;20426;-45
2022/07/17 00:37:39;;;;;;;6.47;5.85;;;;;;;;;;5007763;28;20486;-45
2022/07/17 00:40:05;;;;;;;7.35;6.28;;;;;;;;;;5004651;28;20084;-45
2022/07/17 00:42:31;;;;;;;11.13;5.82;;;;;;;;;;5010331;28;20037;-45
2022/07/17 00:44:57;;;;;;;8.10;5.95;;;;;;;;;;5007645;28;20129;-42
2022/07/17 00:47:22;;;;;;;7.32;5.90;;;;;;;;;;5007560;28;20056;-46
2022/07/17 00:49:49;;;;;;;7.45;5.88;;;;;;;;;;5009414;28;20037;-41
2022/07/17 00:52:16;;;;;;;10.48;5.75;;;;;;;;;;5005756;28;20084;-41
2022/07/17 00:54:44;;;;;;;8.65;6.18;;;;;;;;;;5008191;28;20686;-44
2022/07/17 00:57:15;;;;;;;11.02;5.85;;;;;;;;;;5009496;28;20038;-42
2022/07/17 00:59:42;;;;;;;6.68;5.97;;;;;;;;;;5007360;28;20027;-46
2022/07/17 01:02:10;;;;;;;8.75;5.88;;;;;;;;;;5005968;28;20060;-42
2022/07/17 01:04:37;;;;;;;8.90;5.65;;;;;;;;;;5008720;28;20042;-48
2022/07/17 01:07:05;;;;;;;10.05;6.43;;;;;;;;;;5008117;28;20437;-46
2022/07/17 01:09:32;;;;;;;8.30;6.53;;;;;;;;;;5006838;28;20604;-48
2022/07/17 01:11:58;;;;;;;12.27;7.20;;;;;;;;;;5007482;28;20385;-44
2022/07/17 01:14:25;;;;;;;8.02;6.32;;;;;;;;;;5006824;28;20034;-43
2022/07/17 01:16:51;;;;;;;9.25;6.50;;;;;;;;;;5005542;28;20037;-45
2022/07/17 01:19:18;;;;;;;17.98;6.50;;;;;;;;;;5004630;28;20045;-46
2022/07/17 01:21:46;;;;;;;7.97;6.20;;;;;;;;;;5005753;28;20034;-44
2022/07/17 01:24:13;;;;;;;10.52;6.60;;;;;;;;;;5007046;28;20060;-46
2022/07/17 01:26:43;;;;;;;8.55;6.18;;;;;;;;;;5007497;28;20394;-49
2022/07/17 01:29:13;;;;;;;9.38;6.47;;;;;;;;;;5006257;28;20050;-43
2022/07/17 01:31:40;;;;;;;6.40;5.78;;;;;;;;;;5005807;28;20034;-44
2022/07/17 01:34:08;;;;;;;13.45;6.65;;;;;;;;;;5003471;28;20399;-47
2022/07/17 01:36:34;;;;;;;7.93;6.32;;;;;;;;;;5006524;28;20427;-42
2022/07/17 01:39:00;;;;;;;9.32;6.20;;;;;;;;;;5006712;28;20514;-44
2022/07/17 01:41:27;;;;;;;9.38;6.68;;;;;;;;;;5006574;28;20034;-44
2022/07/17 01:43:52;;;;;;;9.27;6.00;;;;;;;;;;5007721;28;20026;-42
2022/07/17 01:46:18;;;;;;;7.95;6.40;;;;;;;;;;5006195;28;20467;-44
2022/07/17 01:48:44;;;;;;;7.50;5.93;;;;;;;;;;5003376;28;20041;-45
2022/07/17 01:51:09;;;;;;;8.57;6.10;;;;;;;;;;5004442;28;20029;-41
2022/07/17 01:53:35;;;;;;;7.68;6.55;;;;;;;;;;5002601;28;20038;-41
2022/07/17 01:56:01;;;;;;;8.77;6.13;;;;;;;;;;5007908;28;20038;-44
2022/07/17 01:58:27;;;;;;;6.78;6.18;;;;;;;;;;5006553;28;20046;-47
2022/07/17 02:00:53;;;;;;;9.10;6.60;;;;;;;;;;5007629;28;20033;-42
2022/07/17 02:03:19;;;;;;;7.28;6.00;;;;;;;;;;5009806;28;20140;-41
2022/07/17 02:05:45;;;;;;;11.27;5.93;;;;;;;;;;5009627;28;20034;-42
2022/07/17 02:08:11;;;;;;;12.68;5.85;;;;;;;;;;5006649;28;20040;-41
2022/07/17 02:10:37;;;;;;;11.25;6.15;;;;;;;;;;5002890;28;20069;-45
2022/07/17 02:13:03;;;;;;;13.02;6.03;;;;;;;;;;5008816;28;20482;-46
2022/07/17 02:15:29;;;;;;;9.63;6.13;;;;;;;;;;5012429;28;20029;-42
2022/07/17 02:17:55;;;;;;;10.15;5.85;;;;;;;;;;5005202;28;20033;-46
2022/07/17 02:20:21;;;;;;;7.10;6.07;;;;;;;;;;5008082;28;20038;-44
2022/07/17 02:22:47;;;;;;;10.38;6.20;;;;;;;;;;5004016;28;20160;-46
2022/07/17 02:25:13;;;;;;;8.95;6.20;;;;;;;;;;5009460;28;20041;-43
2022/07/17 02:27:40;;;;;;;11.75;6.07;;;;;;;;;;5005748;28;20053;-42
2022/07/17 02:30:10;;;;;;;6.30;5.32;;;;;;;;;;5007667;28;20080;-42
2022/07/17 02:32:36;;;;;;;10.68;6.40;;;;;;;;;;5007588;28;20041;-45
2022/07/17 02:35:02;;;;;;;10.77;5.97;;;;;;;;;;5007783;28;20052;-43
2022/07/17 02:37:28;;;;;;;9.00;5.80;;;;;;;;;;5009525;28;20553;-43
2022/07/17 02:39:54;;;;;;;12.70;6.32;;;;;;;;;;5003882;28;20065;-43
2022/07/17 02:42:23;;;;;;;9.63;6.30;;;;;;;;;;5008213;28;20030;-41
2022/07/17 02:44:49;;;;;;;8.07;5.95;;;;;;;;;;5009383;28;20500;-41
2022/07/17 02:47:23;;;;;;;6.70;5.65;;;;;;;;;;5008710;28;20037;-41
2022/07/17 02:49:50;;;;;;;9.32;6.70;;;;;;;;;;5008218;28;20030;-42
2022/07/17 02:52:16;;;;;;;9.65;6.15;;;;;;;;;;5004099;28;20034;-45
2022/07/17 02:54:41;;;;;;;7.68;5.97;;;;;;;;;;5007852;28;20125;-44
2022/07/17 02:57:07;;;;;;;12.10;5.88;;;;;;;;;;5007082;28;20501;-43
2022/07/17 02:59:33;;;;;;;8.15;6.00;;;;;;;;;;5008117;28;20034;-41
2022/07/17 03:01:58;;;;;;;7.13;6.10;;;;;;;;;;5003296;28;20029;-46
2022/07/17 03:04:24;;;;;;;13.10;5.97;;;;;;;;;;5006669;28;20425;-45
2022/07/17 03:06:50;;;;;;;7.32;5.60;;;;;;;;;;5004807;28;20434;-44
2022/07/17 03:09:16;;;;;;;6.38;5.30;;;;;;;;;;5007998;28;20038;-44
2022/07/17 03:11:41;;;;;;;10.35;5.50;;;;;;;;;;5005646;28;20033;-41
2022/07/17 03:14:07;;;;;;;9.48;6.30;;;;;;;;;;5004656;28;20496;-41
2022/07/17 03:16:32;;;;;;;6.85;5.25;;;;;;;;;;5004777;28;20033;-42
2022/07/17 03:18:58;;;;;;;7.07;5.82;;;;;;;;;;5003802;28;20113;-44
2022/07/17 03:21:24;;;;;;;11.55;6.40;;;;;;;;;;5004069;28;20136;-44
2022/07/17 03:23:49;;;;;;;12.32;5.95;;;;;;;;;;5007871;28;20113;-42
2022/07/17 03:26:15;;;;;;;22.45;5.40;;;;;;;;;;5005173;28;20030;-48
2022/07/17 03:28:40;;;;;;;14.77;5.90;;;;;;;;;;5003514;28;20084;-42
2022/07/17 03:31:06;;;;;;;8.02;5.32;;;;;;;;;;5003334;28;20038;-44
2022/07/17 03:33:32;;;;;;;6.63;5.93;;;;;;;;;;5005693;28;20522;-41
2022/07/17 03:35:58;;;;;;;7.93;5.80;;;;;;;;;;5008240;28;20034;-42
2022/07/17 03:38:24;;;;;;;7.75;5.35;;;;;;;;;;5003851;28;20855;-44
2022/07/17 03:40:49;;;;;;;7.05;5.90;;;;;;;;;;5005142;28;20042;-44
2022/07/17 03:43:15;;;;;;;8.65;5.53;;;;;;;;;;5006117;28;20536;-41
2022/07/17 03:45:41;;;;;;;10.15;5.75;;;;;;;;;;5002975;28;20108;-41
2022/07/17 03:48:08;;;;;;;8.75;6.32;;;;;;;;;;5009219;28;20495;-47
2022/07/17 03:50:34;;;;;;;9.63;6.05;;;;;;;;;;5005023;28;20037;-43
2022/07/17 03:53:00;;;;;;;6.78;5.57;;;;;;;;;;5002480;28;20394;-41
2022/07/17 03:55:26;;;;;;;7.60;5.80;;;;;;;;;;5006475;28;20042;-43
2022/07/17 03:57:52;;;;;;;10.02;5.72;;;;;;;;;;5007077;28;20478;-42
2022/07/17 04:00:18;;;;;;;9.40;5.80;;;;;;;;;;5005341;28;20040;-41
2022/07/17 04:02:44;;;;;;;7.78;5.93;;;;;;;;;;5001733;28;20030;-41
2022/07/17 04:05:10;;;;;;;8.95;5.60;;;;;;;;;;5006560;28;20456;-42
2022/07/17 04:07:38;;;;;;;9.40;5.78;;;;;;;;;;5003480;28;20544;-43
2022/07/17 04:10:04;;;;;;;10.30;5.60;;;;;;;;;;5007241;28;20037;-43
2022/07/17 04:12:30;;;;;;;6.88;5.50;;;;;;;;;;5005955;28;20029;-43
2022/07/17 04:15:48;;;;;;;7.10;5.43;;;;;;;;;;5007180;28;20593;-41
2022/07/17 04:18:26;;;;;;;8.13;5.88;;;;;;;;;;5003865;28;20037;-43
2022/07/17 04:21:13;;;;;;;7.05;5.95;;;;;;;;;;5005216;28;20069;-41
2022/07/17 04:23:58;;;;;;;6.78;5.55;;;;;;;;;;5007314;28;20117;-42
2022/07/17 04:26:43;;;;;;;8.73;5.65;;;;;;;;;;5007387;28;20433;-41
2022/07/17 04:29:29;;;;;;;7.10;5.40;;;;;;;;;;5005702;28;20030;-46
2022/07/17 04:32:14;;;;;;;11.02;5.38;;;;;;;;;;5003100;28;20037;-41
2022/07/17 04:35:00;;;;;;;9.88;5.53;;;;;;;;;;5007446;28;20069;-42
2022/07/17 04:37:25;;;;;;;5.97;5.43;;;;;;;;;;5008875;28;20091;-41
2022/07/17 04:39:51;;;;;;;10.48;5.50;;;;;;;;;;5008994;28;20048;-42
2022/07/17 04:42:17;;;;;;;11.13;5.22;;;;;;;;;;5007188;28;20113;-42
2022/07/17 04:44:42;;;;;;;8.95;5.18;;;;;;;;;;5007293;28;20022;-43
2022/07/17 04:47:08;;;;;;;10.25;4.85;;;;;;;;;;5009804;28;20478;-43
2022/07/17 04:49:33;;;;;;;6.85;4.90;;;;;;;;;;5007372;28;20034;-41
2022/07/17 04:51:59;;;;;;;15.43;5.03;;;;;;;;;;5006434;28;20050;-41
2022/07/17 04:54:25;;;;;;;6.18;4.55;;;;;;;;;;5008281;28;20448;-43
2022/07/17 04:56:51;;;;;;;13.02;5.57;;;;;;;;;;5006421;28;20117;-41
2022/07/17 04:59:16;;;;;;;10.27;5.00;;;;;;;;;;5005908;28;20792;-41
2022/07/17 05:01:42;;;;;;;8.52;4.97;;;;;;;;;;5006156;28;20506;-41
2022/07/17 05:04:08;;;;;;;6.30;5.05;;;;;;;;;;5003663;28;20089;-43
2022/07/17 05:06:33;;;;;;;5.78;4.78;;;;;;;;;;5006729;28;20034;-42
2022/07/17 05:08:59;;;;;;;6.82;5.15;;;;;;;;;;5007375;28;20486;-41
2022/07/17 05:11:25;;;;;;;9.25;4.97;;;;;;;;;;5010191;28;20394;-40
2022/07/17 05:13:51;;;;;;;7.43;5.85;;;;;;;;;;5005262;28;20118;-44
2022/07/17 05:16:16;;;;;;;7.68;5.15;;;;;;;;;;5008035;28;20030;-43
2022/07/17 05:18:42;;;;;;;5.85;5.05;;;;;;;;;;5007597;28;20034;-41
2022/07/17 05:21:08;;;;;;;6.53;4.88;;;;;;;;;;5006393;28;20069;-42
2022/07/17 05:23:33;;;;;;;5.60;5.10;;;;;;;;;;5003671;28;20438;-42
2022/07/17 05:25:59;;;;;;;8.27;5.32;;;;;;;;;;5007970;28;20029;-42
2022/07/17 05:28:25;;;;;;;10.52;5.32;;;;;;;;;;5005277;28;20170;-43
2022/07/17 05:30:50;;;;;;;6.95;5.03;;;;;;;;;;5008284;28;20406;-41
2022/07/17 05:33:16;;;;;;;11.48;4.57;;;;;;;;;;5002351;28;20156;-42
2022/07/17 05:35:42;;;;;;;9.52;4.85;;;;;;;;;;5011415;28;20057;-42
2022/07/17 05:38:09;;;;;;;9.82;5.32;;;;;;;;;;5006264;28;20437;-42
2022/07/17 05:40:35;;;;;;;10.30;5.20;;;;;;;;;;5002969;28;20041;-44
2022/07/17 05:43:01;;;;;;;8.20;5.47;;;;;;;;;;5004866;28;20030;-41
2022/07/17 05:45:27;;;;;;;5.65;5.10;;;;;;;;;;5007880;28;20032;-47
2022/07/17 05:47:52;;;;;;;6.60;5.20;;;;;;;;;;5007149;28;20030;-43
2022/07/17 05:50:18;;;;;;;8.93;6.10;;;;;;;;;;5005773;28;20501;-43
2022/07/17 05:52:44;;;;;;;5.18;4.65;;;;;;;;;;5001580;28;20038;-41
2022/07/17 05:55:09;;;;;;;5.35;4.85;;;;;;;;;;5006756;28;20056;-42
2022/07/17 05:57:35;;;;;;;8.82;4.93;;;;;;;;;;5001945;28;20034;-43
2022/07/17 06:00:01;;;;;;;7.00;5.18;;;;;;;;;;5008302;28;20390;-42
2022/07/17 06:02:33;;;;;;;6.78;4.80;;;;;;;;;;5005332;28;20057;-42
2022/07/17 06:04:59;;;;;;;7.28;4.38;;;;;;;;;;5003702;28;20532;-43
2022/07/17 06:07:25;;;;;;;9.68;4.53;;;;;;;;;;5006660;28;20108;-41
2022/07/17 06:09:50;;;;;;;7.40;4.95;;;;;;;;;;5006796;28;20026;-44
2022/07/17 06:12:16;;;;;;;6.35;4.70;;;;;;;;;;5006850;28;20454;-44
2022/07/17 06:14:42;;;;;;;7.25;5.03;;;;;;;;;;5007527;28;21620;-42
2022/07/17 06:17:07;;;;;;;5.40;4.90;;;;;;;;;;5005325;28;20018;-42
2022/07/17 06:19:33;;;;;;;12.40;5.40;;;;;;;;;;5006202;28;20116;-44
2022/07/17 06:21:59;;;;;;;6.93;4.97;;;;;;;;;;5001120;28;20055;-45
2022/07/17 06:24:24;;;;;;;7.10;5.35;;;;;;;;;;5003461;28;20064;-40
2022/07/17 06:26:50;;;;;;;6.68;4.90;;;;;;;;;;5005314;28;20026;-44
2022/07/17 06:29:16;;;;;;;5.45;4.95;;;;;;;;;;5005568;28;20109;-42
2022/07/17 06:31:42;;;;;;;5.95;5.30;;;;;;;;;;5002035;28;20038;-42
2022/07/17 06:34:08;;;;;;;8.35;4.88;;;;;;;;;;5002656;28;20441;-43
2022/07/17 06:36:33;;;;;;;7.03;5.25;;;;;;;;;;5006647;28;20033;-44
2022/07/17 06:38:59;;;;;;;7.90;5.20;;;;;;;;;;5002125;28;20042;-42
2022/07/17 06:41:25;;;;;;;7.18;5.10;;;;;;;;;;5003447;28;20065;-41
2022/07/17 06:43:50;;;;;;;7.85;6.03;;;;;;;;;;5003734;28;20030;-41
2022/07/17 06:46:16;;;;;;;6.25;5.65;;;;;;;;;;5004087;28;20025;-41
2022/07/17 06:48:42;;;;;;;6.40;5.63;;;;;;;;;;5004962;28;20038;-47
2022/07/17 06:51:07;;;;;;;9.18;5.80;;;;;;;;;;5009916;28;20034;-41
2022/07/17 06:53:33;;;;;;;6.13;5.60;;;;;;;;;;5001822;28;20103;-42
2022/07/17 06:55:58;;;;;;;6.32;5.70;;;;;;;;;;5003039;28;20495;-43
2022/07/17 06:58:24;;;;;;;10.35;5.18;;;;;;;;;;5005981;28;20113;-44
2022/07/17 07:00:50;;;;;;;10.98;5.15;;;;;;;;;;5006020;28;20049;-41
2022/07/17 07:03:15;;;;;;;5.88;4.97;;;;;;;;;;5005061;28;20084;-42
2022/07/17 07:05:41;;;;;;;10.05;4.72;;;;;;;;;;5001022;28;20045;-41
2022/07/17 07:08:07;;;;;;;5.28;4.55;;;;;;;;;;5005359;28;20386;-41
2022/07/17 07:10:32;;;;;;;7.03;5.15;;;;;;;;;;4999561;28;20092;-42
2022/07/17 07:12:58;;;;;;;5.80;4.57;;;;;;;;;;4997812;28;20029;-43
2022/07/17 07:15:24;;;;;;;5.35;4.85;;;;;;;;;;4996139;28;20045;-43
2022/07/17 07:17:50;;;;;;;7.38;5.47;;;;;;;;;;5001263;28;20037;-44
2022/07/17 07:20:15;;;;;;;6.85;4.88;;;;;;;;;;4990364;28;20083;-42
2022/07/17 07:22:41;;;;;;;9.52;5.35;;;;;;;;;;4997163;28;20037;-43
2022/07/17 07:25:08;;;;;;;8.68;5.15;;;;;;;;;;5005136;28;20033;-46
2022/07/17 07:27:33;;;;;;;5.35;4.85;;;;;;;;;;5001033;28;20030;-48
2022/07/17 07:29:59;;;;;;;8.25;5.35;;;;;;;;;;4997653;28;20041;-41
2022/07/17 07:32:25;;;;;;;7.03;5.03;;;;;;;;;;4986239;28;20027;-41
2022/07/17 07:34:50;;;;;;;5.82;4.80;;;;;;;;;;4988817;28;20079;-41
2022/07/17 07:37:17;;;;;;;5.30;4.80;;;;;;;;;;4992564;28;20033;-43
2022/07/17 07:39:43;;;;;;;5.75;4.53;;;;;;;;;;4996413;28;20083;-45
2022/07/17 07:42:09;;;;;;;5.63;4.88;;;;;;;;;;4996429;28;20041;-43
2022/07/17 07:44:35;;;;;;;7.43;5.05;;;;;;;;;;4996241;28;20589;-42
2022/07/17 07:47:01;;;;;;;7.65;4.75;;;;;;;;;;4992551;28;20038;-43
2022/07/17 07:49:27;;;;;;;5.78;5.10;;;;;;;;;;4996001;28;20468;-43
2022/07/17 07:51:53;;;;;;;6.00;5.07;;;;;;;;;;4992487;28;20037;-44
2022/07/17 07:54:19;;;;;;;6.65;5.30;;;;;;;;;;4999844;28;20036;-44
2022/07/17 07:56:45;;;;;;;7.72;5.35;;;;;;;;;;5002033;28;20182;-41
2022/07/17 07:59:11;;;;;;;7.80;5.43;;;;;;;;;;5007066;28;20475;-41
2022/07/17 08:01:37;;;;;;;5.93;5.30;;;;;;;;;;4995816;28;20038;-43
2022/07/17 08:04:02;;;;;;;6.90;4.78;;;;;;;;;;4994245;28;20505;-42
2022/07/17 08:06:28;;;;;;;16.40;5.32;;;;;;;;;;4994118;28;20039;-42
2022/07/17 08:08:54;;;;;;;11.60;5.40;;;;;;;;;;5000796;28;20663;-42
2022/07/17 08:11:19;;;;;;;7.75;5.40;;;;;;;;;;4994775;28;20034;-44
2022/07/17 08:13:45;;;;;;;9.77;5.65;;;;;;;;;;4996564;28;20034;-42
2022/07/17 08:16:10;;;;;;;6.13;5.53;;;;;;;;;;4998187;28;20037;-42
2022/07/17 08:18:36;;;;;;;7.22;5.60;;;;;;;;;;4998975;28;20044;-42
2022/07/17 08:21:02;;;;;;;9.20;5.60;;;;;;;;;;4996574;28;20709;-42
2022/07/17 08:23:27;;;;;;;7.35;5.30;;;;;;;;;;4990263;28;20752;-43
2022/07/17 08:25:53;;;;;;;8.43;5.20;;;;;;;;;;4995973;28;20447;-45
2022/07/17 08:28:20;;;;;;;17.67;5.93;;;;;;;;;;4992801;28;22434;-45
2022/07/17 08:30:46;;;;;;;14.20;5.35;;;;;;;;;;4998967;28;20026;-42
2022/07/17 08:33:14;;;;;;;7.55;5.68;;;;;;;;;;4992862;28;20510;-41
2022/07/17 08:35:39;;;;;;;4.97;4.47;;;;;;;;;;4991680;28;20033;-47
2022/07/17 08:38:05;;;;;;;5.57;5.07;;;;;;;;;;4991360;28;20040;-46
2022/07/17 08:40:36;;;;;;;7.38;5.40;;;;;;;;;;4991264;28;21515;-41
2022/07/17 08:43:04;;;;;;;6.38;4.95;;;;;;;;;;4996013;28;20049;-42
2022/07/17 08:45:30;;;;;;;8.00;5.15;;;;;;;;;;4994614;28;20411;-41
2022/07/17 08:47:57;;;;;;;6.82;5.30;;;;;;;;;;4998492;28;20691;-44
2022/07/17 08:50:25;;;;;;;11.20;5.50;;;;;;;;;;5003431;28;20029;-42
2022/07/17 08:52:51;;;;;;;8.27;5.20;;;;;;;;;;4995333;28;20034;-44
2022/07/17 08:55:17;;;;;;;8.07;5.22;;;;;;;;;;5001544;28;20045;-42
2022/07/17 08:57:44;;;;;;;7.00;5.20;;;;;;;;;;4998211;28;20537;-41
2022/07/17 09:00:16;;;;;;;8.85;5.00;;;;;;;;;;5002436;28;20048;-42
2022/07/17 09:03:01;;;;;;;6.78;5.10;;;;;;;;;;5003858;28;20113;-42
2022/07/17 09:05:33;;;;;;;9.05;4.82;;;;;;;;;;5000655;28;20042;-42
2022/07/17 09:08:00;;;;;;;7.88;4.63;;;;;;;;;;4995900;28;20061;-42
2022/07/17 09:10:31;;;;;;;8.68;4.80;;;;;;;;;;4991315;28;20534;-44
2022/07/17 09:12:58;;;;;;;6.22;5.10;;;;;;;;;;4999608;28;20038;-47
2022/07/17 09:15:24;;;;;;;9.98;4.63;;;;;;;;;;4999175;28;20475;-42
2022/07/17 09:17:52;;;;;;;11.25;5.40;;;;;;;;;;4996375;28;20060;-45
2022/07/17 09:20:20;;;;;;;6.38;4.15;;;;;;;;;;4990600;28;20414;-43
2022/07/17 09:22:59;;;;;;;5.50;4.43;;;;;;;;;;5001157;28;20030;-44
2022/07/17 09:25:43;;;;;;;5.88;4.47;;;;;;;;;;5001007;28;20034;-42
2022/07/17 09:28:12;;;;;;;4.97;4.43;;;;;;;;;;5001266;28;20432;-44
2022/07/17 09:30:41;;;;;;;4.43;4.03;;;;;;;;;;5005386;28;20477;-43
2022/07/17 09:33:13;;;;;;;5.50;4.00;;;;;;;;;;5007089;28;20034;-48
2022/07/17 09:35:49;;;;;;;7.82;4.20;;;;;;;;;;5007753;28;20045;-47
2022/07/17 09:38:35;;;;;;;14.95;4.57;;;;;;;;;;5001248;28;20065;-43
2022/07/17 09:41:12;;;;;;;6.20;4.43;;;;;;;;;;5007649;28;20037;-43
2022/07/17 09:43:59;;;;;;;8.35;4.82;;;;;;;;;;5005799;28;20690;-42
2022/07/17 09:46:27;;;;;;;7.20;4.22;;;;;;;;;;5006295;28;20053;-46
2022/07/17 09:49:04;;;;;;;9.02;4.85;;;;;;;;;;5006322;28;20044;-45
2022/07/17 09:51:33;;;;;;;8.50;4.72;;;;;;;;;;5005753;28;20097;-49
2022/07/17 09:54:04;;;;;;;5.90;4.50;;;;;;;;;;5005039;28;20125;-47
2022/07/17 09:56:32;;;;;;;6.25;4.53;;;;;;;;;;5007791;28;20081;-45
2022/07/17 09:59:06;;;;;;;5.30;4.47;;;;;;;;;;5008790;28;20033;-49
2022/07/17 10:01:33;;;;;;;7.15;4.72;;;;;;;;;;5006857;28;20109;-49
2022/07/17 10:03:59;;;;;;;6.45;4.47;;;;;;;;;;5005397;28;20029;-42
2022/07/17 10:06:26;;;;;;;8.60;4.35;;;;;;;;;;5004358;28;20034;-43
2022/07/17 10:08:53;;;;;;;8.02;4.63;;;;;;;;;;5008049;28;20029;-45
2022/07/17 10:11:22;;;;;;;5.47;4.28;;;;;;;;;;4999291;28;20030;-42
2022/07/17 10:13:49;;;;;;;7.68;4.40;;;;;;;;;;5003314;28;20056;-42
2022/07/17 10:16:27;;;;;;;5.03;4.07;;;;;;;;;;5007757;28;20061;-45
2022/07/17 10:18:54;;;;;;;6.63;4.30;;;;;;;;;;5007355;28;20072;-44
2022/07/17 10:21:22;;;;;;;6.63;4.20;;;;;;;;;;5005253;28;20482;-42
2022/07/17 10:24:06;;;;;;;5.88;4.03;;;;;;;;;;5006456;28;20030;-42
2022/07/17 10:26:35;;;;;;;6.13;4.20;;;;;;;;;;5002950;28;20084;-44
2022/07/17 10:29:01;;;;;;;5.35;4.55;;;;;;;;;;5004340;28;20049;-41
2022/07/17 10:31:29;;;;;;;6.60;4.85;;;;;;;;;;5004989;28;20075;-42
2022/07/17 10:33:59;;;;;;;4.50;4.10;;;;;;;;;;5006331;28;20030;-42
2022/07/17 10:36:36;;;;;;;7.38;4.30;;;;;;;;;;5006375;28;20026;-42
2022/07/17 10:39:16;;;;;;;8.93;4.88;;;;;;;;;;5002227;28;20057;-42
2022/07/17 10:41:54;;;;;;;5.82;4.10;;;;;;;;;;5005922;28;20041;-43
2022/07/17 10:44:27;;;;;;;8.07;4.22;;;;;;;;;;5004536;28;20025;-45
2022/07/17 10:46:54;;;;;;;6.28;4.53;;;;;;;;;;5005791;28;20483;-43
2022/07/17 10:49:20;;;;;;;10.15;5.00;;;;;;;;;;5004707;28;20057;-46
2022/07/17 10:51:46;;;;;;;5.15;4.55;;;;;;;;;;5000631;28;20479;-43
2022/07/17 10:54:33;;;;;;;9.52;4.20;;;;;;;;;;5007927;28;20119;-42
2022/07/17 10:57:10;;;;;;;10.75;5.15;;;;;;;;;;5003677;28;20042;-43
2022/07/17 10:59:41;;;;;;;7.88;4.80;;;;;;;;;;5008262;28;20034;-42
2022/07/17 11:02:09;;;;;;;6.40;4.38;;;;;;;;;;5001972;28;20185;-42
2022/07/17 11:04:37;;;;;;;6.00;3.67;;;;;;;;;;5007788;28;20065;-44
2022/07/17 11:07:06;;;;;;;6.18;4.13;;;;;;;;;;5006374;28;20036;-42
2022/07/17 11:09:32;;;;;;;7.50;4.00;;;;;;;;;;5002130;28;20113;-42
2022/07/17 11:11:58;;;;;;;5.05;4.57;;;;;;;;;;5004154;28;20129;-42
2022/07/17 11:14:25;;;;;;;6.07;4.63;;;;;;;;;;5005848;28;20038;-43
2022/07/17 11:17:00;;;;;;;6.97;4.57;;;;;;;;;;5003360;28;20030;-43
2022/07/17 11:19:44;;;;;;;8.55;4.32;;;;;;;;;;5002358;28;20030;-44
2022/07/17 11:22:11;;;;;;;8.10;4.70;;;;;;;;;;5003641;28;20030;-45
2022/07/17 11:24:48;;;;;;;25.98;5.20;;;;;;;;;;5004274;28;20398;-45
2022/07/17 11:27:22;;;;;;;8.68;4.30;;;;;;;;;;5005788;28;20030;-42
2022/07/17 11:29:48;;;;;;;8.80;4.43;;;;;;;;;;5008410;28;20026;-41
2022/07/17 11:32:14;;;;;;;7.90;3.90;;;;;;;;;;5001315;28;20029;-47
2022/07/17 11:34:40;;;;;;;5.15;4.45;;;;;;;;;;5002699;28;20029;-42
2022/07/17 11:37:08;;;;;;;6.80;4.35;;;;;;;;;;4999800;28;20109;-45
2022/07/17 11:40:00;;;;;;;8.38;4.20;;;;;;;;;;5000750;28;20041;-42
2022/07/17 11:42:26;;;;;;;5.22;4.28;;;;;;;;;;5003653;28;20057;-42
2022/07/17 11:44:55;;;;;;;6.55;4.38;;;;;;;;;;5008406;28;20030;-42
2022/07/17 11:47:26;;;;;;;4.68;4.22;;;;;;;;;;5008782;28;20064;-42
2022/07/17 11:50:03;;;;;;;5.53;4.60;;;;;;;;;;5008330;28;20038;-42
2022/07/17 11:52:43;;;;;;;7.97;4.28;;;;;;;;;;5005891;28;20073;-43
2022/07/17 11:55:09;;;;;;;3.92;3.38;;;;;;;;;;5008020;28;20126;-42
2022/07/17 11:57:46;;;;;;;7.28;3.90;;;;;;;;;;5007796;28;20095;-43
2022/07/17 12:00:13;;;;;;;4.55;4.15;;;;;;;;;;5010936;28;20041;-42
2022/07/17 12:02:38;;;;;;;6.25;4.00;;;;;;;;;;5010993;28;20037;-42
2022/07/17 12:05:05;;;;;;;4.40;3.83;;;;;;;;;;5006672;28;20549;-42
2022/07/17 12:07:45;;;;;;;9.82;4.18;;;;;;;;;;5006070;28;20091;-42
2022/07/17 12:10:23;;;;;;;3.88;3.58;;;;;;;;;;5006815;28;20494;-42
2022/07/17 12:12:54;;;;;;;4.93;3.40;;;;;;;;;;5009028;28;20036;-43
2022/07/17 12:15:21;;;;;;;;;;;;;;;;;;5007868;28;20026;-42
2022/07/17 12:17:47;;;;;;;6.63;3.83;;;;;;;;;;5010653;28;20747;-42
2022/07/17 12:20:12;;;;;;;5.53;3.63;;;;;;;;;;5008021;28;20137;-42
2022/07/17 12:22:56;;;;;;;8.95;3.83;;;;;;;;;;5007602;28;20040;-42
2022/07/17 12:25:26;;;;;;;5.85;3.22;;;;;;;;;;5006108;28;20367;-42
2022/07/17 12:27:52;;;;;;;5.13;3.50;;;;;;;;;;5004968;28;20026;-43
2022/07/17 12:30:19;;;;;;;8.57;4.07;;;;;;;;;;5005232;28;20085;-42
2022/07/17 12:32:45;;;;;;;4.80;3.40;;;;;;;;;;5009747;28;20076;-42
2022/07/17 12:35:10;;;;;;;5.07;3.50;;;;;;;;;;5006353;28;20034;-42
2022/07/17 12:37:36;;;;;;;4.10;3.60;;;;;;;;;;5010050;28;20549;-43
2022/07/17 12:40:02;;;;;;;4.47;3.60;;;;;;;;;;5009378;28;20728;-42
2022/07/17 12:42:28;;;;;;;3.80;3.35;;;;;;;;;;5010516;28;20026;-43
2022/07/17 12:44:54;;;;;;;5.25;3.53;;;;;;;;;;5010602;28;20406;-43
2022/07/17 12:47:19;;;;;;;7.63;3.38;;;;;;;;;;5008218;28;20042;-44
2022/07/17 12:49:45;;;;;;;10.45;4.25;;;;;;;;;;5012108;28;20030;-43
2022/07/17 12:52:12;;;;;;;9.23;3.80;;;;;;;;;;5008626;28;20108;-42
2022/07/17 12:54:37;;;;;;;3.67;3.33;;;;;;;;;;5007944;28;20084;-42
2022/07/17 12:57:03;;;;;;;11.73;3.72;;;;;;;;;;5008247;28;20030;-42
2022/07/17 12:59:29;;;;;;;3.80;3.40;;;;;;;;;;5008887;28;20041;-43
2022/07/17 13:01:54;;;;;;;5.32;3.30;;;;;;;;;;5010957;28;20021;-46
2022/07/17 13:04:20;;;;;;;4.35;3.58;;;;;;;;;;5009249;28;20056;-42
2022/07/17 13:06:47;;;;;;;4.70;3.22;;;;;;;;;;5001752;28;20026;-44
2022/07/17 13:09:12;;;;;;;5.15;3.53;;;;;;;;;;5009685;28;20108;-43
2022/07/17 13:11:42;;;;;;;4.38;3.05;;;;;;;;;;5007788;28;20121;-43
2022/07/17 13:14:12;;;;;;;6.13;3.38;;;;;;;;;;5011155;28;20060;-43
2022/07/17 13:16:38;;;;;;;3.33;2.97;;;;;;;;;;5008775;28;20084;-43
2022/07/17 13:19:05;;;;;;;7.13;3.92;;;;;;;;;;5009452;28;20026;-44
2022/07/17 13:21:30;;;;;;;4.05;3.08;;;;;;;;;;5007283;28;20911;-42
2022/07/17 13:23:57;;;;;;;5.55;3.20;;;;;;;;;;5007978;28;20057;-44
2022/07/17 13:26:22;;;;;;;6.30;3.20;;;;;;;;;;5009394;28;20054;-42
2022/07/17 13:28:49;;;;;;;5.45;2.90;;;;;;;;;;5008706;28;20533;-46
2022/07/17 13:31:14;;;;;;;4.55;3.30;;;;;;;;;;5011916;28;20104;-42
2022/07/17 13:33:40;;;;;;;6.75;3.83;;;;;;;;;;5009997;28;20036;-42
2022/07/17 13:36:06;;;;;;;5.55;3.00;;;;;;;;;;5006868;28;20041;-43
2022/07/17 13:38:32;;;;;;;4.43;3.22;;;;;;;;;;5005099;28;20041;-43
2022/07/17 13:40:58;;;;;;;5.90;3.22;;;;;;;;;;5007645;28;20057;-48
2022/07/17 13:43:23;;;;;;;5.78;3.00;;;;;;;;;;5005883;28;20463;-42
2022/07/17 13:45:49;;;;;;;4.03;2.90;;;;;;;;;;5010781;28;20426;-44
2022/07/17 13:48:15;;;;;;;5.43;3.08;;;;;;;;;;5008545;28;20112;-43
2022/07/17 13:50:43;;;;;;;5.15;2.97;;;;;;;;;;5006765;28;20038;-44
2022/07/17 13:53:11;;;;;;;4.65;3.17;;;;;;;;;;5009012;28;20029;-43
2022/07/17 13:55:38;;;;;;;4.22;3.40;;;;;;;;;;5007320;28;20045;-44
2022/07/17 13:58:05;;;;;;;8.57;3.40;;;;;;;;;;5008493;28;20110;-43
2022/07/17 14:00:31;;;;;;;3.20;2.97;;;;;;;;;;5009408;28;20079;-43
2022/07/17 14:02:57;;;;;;;6.13;3.28;;;;;;;;;;5005161;28;20038;-45
2022/07/17 14:05:22;;;;;;;3.80;3.25;;;;;;;;;;5006877;28;20083;-43
2022/07/17 14:07:48;;;;;;;4.60;3.38;;;;;;;;;;5011473;28;20422;-42
2022/07/17 14:10:14;;;;;;;5.30;3.28;;;;;;;;;;5006226;28;20066;-43
2022/07/17 14:12:39;;;;;;;6.25;3.42;;;;;;;;;;5006776;28;20034;-44
2022/07/17 14:15:07;;;;;;;6.95;3.40;;;;;;;;;;5006913;28;20030;-46
2022/07/17 14:17:33;;;;;;;4.05;3.20;;;;;;;;;;5009146;28;20037;-43
2022/07/17 14:19:59;;;;;;;4.18;3.45;;;;;;;;;;5007081;28;20132;-43
2022/07/17 14:22:24;;;;;;;4.50;3.45;;;;;;;;;;5007381;28;20152;-45
2022/07/17 14:24:50;;;;;;;3.42;3.13;;;;;;;;;;5008080;28;20574;-43
2022/07/17 14:27:16;;;;;;;5.00;3.30;;;;;;;;;;5005532;28;20112;-47
2022/07/17 14:29:41;;;;;;;5.40;3.67;;;;;;;;;;5005695;28;20038;-42
2022/07/17 14:32:07;;;;;;;4.40;3.17;;;;;;;;;;5008046;28;20030;-43
2022/07/17 14:34:33;;;;;;;5.35;3.20;;;;;;;;;;5007795;28;20529;-43
2022/07/17 14:36:59;;;;;;;7.82;3.38;;;;;;;;;;5007832;28;20021;-46
2022/07/17 14:39:26;;;;;;;6.00;3.38;;;;;;;;;;5004532;28;20175;-42
2022/07/17 14:41:51;;;;;;;3.70;3.33;;;;;;;;;;5006946;28;20030;-42
2022/07/17 14:44:17;;;;;;;4.65;3.13;;;;;;;;;;5007119;28;20034;-44